createdAt,value
2022-09-06T00:00:54.271Z,94280.56
2022-09-06T00:01:55.830Z,94281.55
2022-09-06T00:02:57.531Z,94282.00
2022-09-06T00:03:59.177Z,94281.26
2022-09-06T00:05:01.352Z,94278.09
2022-09-06T00:06:10.560Z,94278.61
2022-09-06T00:07:12.950Z,94280.61
2022-09-06T00:08:17.166Z,94276.40
2022-09-06T00:09:18.619Z,94278.85
2022-09-06T00:10:20.532Z,94276.63
2022-09-06T00:11:22.121Z,94275.76
2022-09-06T00:12:24.021Z,94279.77
2022-09-06T00:13:25.813Z,94278.84
2022-09-06T00:14:27.355Z,94280.61
2022-09-06T00:15:29.165Z,94282.02
2022-09-06T00:16:30.816Z,94276.91
2022-09-06T00:17:32.889Z,94272.61
2022-09-06T00:18:34.443Z,94275.53
2022-09-06T00:19:36.046Z,94273.25
2022-09-06T00:20:40.818Z,94274.36
2022-09-06T00:21:42.276Z,94273.94
2022-09-06T00:22:43.796Z,94272.24
2022-09-06T00:23:45.387Z,94272.81
2022-09-06T00:24:47.039Z,94269.39
2022-09-06T00:25:48.636Z,94268.23
2022-09-06T00:26:50.555Z,94264.55
2022-09-06T00:27:56.024Z,94261.33
2022-09-06T00:28:57.596Z,94263.69
2022-09-06T00:29:59.563Z,94260.56
2022-09-06T00:31:42.854Z,94260.82
2022-09-06T00:32:44.464Z,94262.15
2022-09-06T00:33:46.279Z,94263.52
2022-09-06T00:34:47.894Z,94260.34
2022-09-06T00:35:50.162Z,94261.02
2022-09-06T00:36:51.759Z,94258.96
2022-09-06T00:38:00.332Z,94258.58
2022-09-06T00:39:02.653Z,94261.36
2022-09-06T00:40:04.699Z,94257.98
2022-09-06T00:41:07.399Z,94255.70
2022-09-06T00:42:10.171Z,94253.52
2022-09-06T00:43:11.881Z,94252.25
2022-09-06T00:44:13.893Z,94251.23
2022-09-06T00:45:15.758Z,94252.64
2022-09-06T00:46:19.021Z,94256.76
2022-09-06T00:47:21.068Z,94253.52
2022-09-06T00:48:23.099Z,94255.63
2022-09-06T00:49:26.469Z,94253.34
2022-09-06T00:50:28.949Z,94251.13
2022-09-06T00:51:32.999Z,94251.98
2022-09-06T00:52:36.546Z,94254.77
2022-09-06T00:53:38.668Z,94251.34
2022-09-06T00:54:41.953Z,94254.71
2022-09-06T00:55:43.892Z,94251.85
2022-09-06T00:56:45.884Z,94252.48
2022-09-06T00:57:50.976Z,94255.42
2022-09-06T00:58:52.949Z,94252.56
2022-09-06T00:59:56.891Z,94252.98
2022-09-06T01:00:58.449Z,94253.90
2022-09-06T01:02:00.262Z,94253.20
2022-09-06T01:03:02.014Z,94250.26
2022-09-06T01:04:04.194Z,94249.58
2022-09-06T01:05:05.960Z,94249.77
2022-09-06T01:06:16.852Z,94252.24
2022-09-06T01:07:27.295Z,94250.04
2022-09-06T01:08:35.373Z,94253.61
2022-09-06T01:09:46.552Z,94253.48
2022-09-06T01:10:50.900Z,94250.15
2022-09-06T01:11:58.596Z,94247.60
2022-09-06T01:13:20.015Z,94245.92
2022-09-06T01:14:25.013Z,94242.02
2022-09-06T01:15:35.064Z,94245.06
2022-09-06T01:16:42.890Z,94244.11
2022-09-06T01:18:08.189Z,94244.92
2022-09-06T01:19:09.695Z,94243.34
2022-09-06T01:20:11.183Z,94242.69
2022-09-06T01:21:31.416Z,94244.95
2022-09-06T01:22:41.475Z,94241.77
2022-09-06T01:23:49.065Z,94240.98
2022-09-06T01:25:00.075Z,94238.38
2022-09-06T01:26:27.200Z,94243.65
2022-09-06T01:27:28.916Z,94238.16
2022-09-06T01:28:35.385Z,94238.73
2022-09-06T01:29:56.185Z,94236.63
2022-09-06T01:31:04.720Z,94240.45
2022-09-06T01:32:11.860Z,94242.77
2022-09-06T01:33:24.335Z,94241.07
2022-09-06T01:34:34.780Z,94241.60
2022-09-06T01:35:36.376Z,94243.61
2022-09-06T01:37:08.279Z,94243.84
2022-09-06T01:38:10.249Z,94244.04
2022-09-06T01:39:20.204Z,94244.73
2022-09-06T01:40:22.008Z,94241.19
2022-09-06T01:41:26.818Z,94239.98
2022-09-06T01:42:30.778Z,94240.73
2022-09-06T01:43:34.664Z,94241.05
2022-09-06T01:44:37.531Z,94241.90
2022-09-06T01:45:45.270Z,94245.75
2022-09-06T01:46:59.874Z,94246.02
2022-09-06T01:48:01.372Z,94245.94
2022-09-06T01:49:07.795Z,94243.03
2022-09-06T01:50:09.438Z,94242.44
2022-09-06T01:51:14.452Z,94239.48
2022-09-06T01:52:39.481Z,94238.73
2022-09-06T01:53:50.994Z,94239.05
2022-09-06T01:55:18.923Z,94240.75
2022-09-06T01:56:32.550Z,94235.59
2022-09-06T01:57:54.448Z,94238.27
2022-09-06T01:58:59.334Z,94238.79
2022-09-06T02:00:00.941Z,94239.26
2022-09-06T02:01:05.545Z,94240.42
2022-09-06T02:02:12.145Z,94241.77
2022-09-06T02:03:13.839Z,94241.11
2022-09-06T02:04:21.434Z,94241.75
2022-09-06T02:05:26.888Z,94243.55
2022-09-06T02:06:39.382Z,94240.48
2022-09-06T02:07:42.984Z,94242.73
2022-09-06T02:08:46.849Z,94241.16
2022-09-06T02:09:51.860Z,94241.73
2022-09-06T02:10:56.699Z,94238.40
2022-09-06T02:11:59.392Z,94239.35
2022-09-06T02:13:01.949Z,94236.83
2022-09-06T02:14:09.078Z,94238.17
2022-09-06T02:15:14.476Z,94239.81
2022-09-06T02:16:19.588Z,94238.38
2022-09-06T02:17:24.426Z,94242.54
2022-09-06T02:18:46.368Z,94241.30
2022-09-06T02:20:00.816Z,94245.85
2022-09-06T02:21:03.643Z,94247.23
2022-09-06T02:22:07.910Z,94242.38
2022-09-06T02:23:09.714Z,94243.63
2022-09-06T02:24:20.326Z,94238.34
2022-09-06T02:25:24.912Z,94239.69
2022-09-06T02:26:30.236Z,94242.53
2022-09-06T02:27:32.205Z,94245.67
2022-09-06T02:28:33.964Z,94245.64
2022-09-06T02:29:35.666Z,94250.73
2022-09-06T02:30:47.030Z,94251.27
2022-09-06T02:31:51.970Z,94251.70
2022-09-06T02:32:57.215Z,94253.67
2022-09-06T02:33:59.124Z,94254.36
2022-09-06T02:35:07.315Z,94255.34
2022-09-06T02:36:09.127Z,94253.19
2022-09-06T02:37:14.973Z,94253.79
2022-09-06T02:38:17.450Z,94248.88
2022-09-06T02:39:19.099Z,94248.30
2022-09-06T02:40:20.719Z,94245.49
2022-09-06T02:41:23.654Z,94246.27
2022-09-06T02:42:27.999Z,94246.21
2022-09-06T02:43:30.049Z,94241.50
2022-09-06T02:44:32.406Z,94245.91
2022-09-06T02:45:34.229Z,94242.82
2022-09-06T02:46:38.794Z,94244.98
2022-09-06T02:47:40.383Z,94245.02
2022-09-06T02:48:42.257Z,94246.58
2022-09-06T02:49:44.642Z,94245.50
2022-09-06T02:50:46.266Z,94237.23
2022-09-06T02:51:47.936Z,94235.44
2022-09-06T02:53:05.911Z,94237.23
2022-09-06T02:54:07.469Z,94235.02
2022-09-06T02:55:09.289Z,94235.27
2022-09-06T02:56:11.101Z,94236.71
2022-09-06T02:57:12.688Z,94235.39
2022-09-06T02:58:14.760Z,94235.64
2022-09-06T02:59:16.314Z,94237.50
2022-09-06T03:00:18.136Z,94235.64
2022-09-06T03:01:19.822Z,94234.27
2022-09-06T03:02:21.697Z,94232.38
2022-09-06T03:03:25.500Z,94234.07
2022-09-06T03:04:27.365Z,94234.75
2022-09-06T03:05:29.476Z,94232.38
2022-09-06T03:06:32.006Z,94233.64
2022-09-06T03:07:33.708Z,94232.83
2022-09-06T03:08:36.503Z,94236.27
2022-09-06T03:09:38.204Z,94227.27
2022-09-06T03:10:39.898Z,94236.59
2022-09-06T03:11:41.875Z,94238.27
2022-09-06T03:12:43.934Z,94235.37
2022-09-06T03:13:45.521Z,94239.16
2022-09-06T03:14:47.425Z,94237.73
2022-09-06T03:15:52.611Z,94239.67
2022-09-06T03:16:54.237Z,94239.17
2022-09-06T03:17:59.158Z,94236.06
2022-09-06T03:19:01.037Z,94236.77
2022-09-06T03:20:03.546Z,94235.61
2022-09-06T03:21:05.300Z,94236.34
2022-09-06T03:22:06.820Z,94238.55
2022-09-06T03:23:09.084Z,94235.79
2022-09-06T03:24:10.674Z,94239.66
2022-09-06T03:25:12.252Z,94236.55
2022-09-06T03:26:13.804Z,94236.84
2022-09-06T03:27:15.386Z,94236.09
2022-09-06T03:28:18.123Z,94229.04
2022-09-06T03:29:19.774Z,94233.30
2022-09-06T03:30:24.040Z,94230.45
2022-09-06T03:31:25.759Z,94231.42
2022-09-06T03:32:27.587Z,94228.27
2022-09-06T03:33:29.233Z,94236.11
2022-09-06T03:34:30.922Z,94232.83
2022-09-06T03:35:32.897Z,94230.90
2022-09-06T03:36:34.644Z,94230.64
2022-09-06T03:37:36.423Z,94231.52
2022-09-06T03:38:37.988Z,94232.42
2022-09-06T03:39:39.664Z,94232.91
2022-09-06T03:40:43.325Z,94226.73
2022-09-06T03:41:45.302Z,94234.00
2022-09-06T03:42:46.954Z,94234.66
2022-09-06T03:43:48.609Z,94235.20
2022-09-06T03:44:50.553Z,94230.86
2022-09-06T03:45:53.402Z,94229.52
2022-09-06T03:46:57.670Z,94228.33
2022-09-06T03:47:59.309Z,94223.89
2022-09-06T03:49:03.574Z,94223.31
2022-09-06T03:50:06.282Z,94220.75
2022-09-06T03:51:07.883Z,94221.20
2022-09-06T03:52:09.566Z,94220.98
2022-09-06T03:53:11.325Z,94223.26
2022-09-06T03:54:12.864Z,94223.05
2022-09-06T03:55:14.681Z,94222.27
2022-09-06T03:56:16.365Z,94223.92
2022-09-06T03:57:18.096Z,94219.91
2022-09-06T03:58:20.668Z,94218.23
2022-09-06T03:59:22.384Z,94217.59
2022-09-06T04:00:23.930Z,94217.01
2022-09-06T04:01:25.769Z,94212.42
2022-09-06T04:02:27.566Z,94213.11
2022-09-06T04:03:29.424Z,94211.48
2022-09-06T04:04:30.964Z,94213.95
2022-09-06T04:05:38.322Z,94213.10
2022-09-06T04:06:39.937Z,94214.15
2022-09-06T04:07:49.272Z,94212.66
2022-09-06T04:08:51.759Z,94216.54
2022-09-06T04:09:54.455Z,94214.54
2022-09-06T04:10:56.869Z,94217.65
2022-09-06T04:11:59.700Z,94211.52
2022-09-06T04:13:01.586Z,94213.44
2022-09-06T04:14:04.817Z,94210.92
2022-09-06T04:15:12.499Z,94209.02
2022-09-06T04:16:23.401Z,94204.58
2022-09-06T04:17:25.857Z,94210.37
2022-09-06T04:18:27.748Z,94211.44
2022-09-06T04:19:30.755Z,94213.02
2022-09-06T04:20:41.474Z,94214.07
2022-09-06T04:21:43.048Z,94212.34
2022-09-06T04:22:47.140Z,94208.01
2022-09-06T04:23:48.929Z,94211.70
2022-09-06T04:24:50.520Z,94209.06
2022-09-06T04:25:57.658Z,94210.60
2022-09-06T04:27:00.473Z,94210.09
2022-09-06T04:28:03.128Z,94209.33
2022-09-06T04:29:18.617Z,94207.14
2022-09-06T04:30:20.569Z,94208.84
2022-09-06T04:31:40.282Z,94207.67
2022-09-06T04:32:48.031Z,94206.92
2022-09-06T04:33:49.634Z,94207.58
2022-09-06T04:34:51.435Z,94207.27
2022-09-06T04:35:54.431Z,94206.99
2022-09-06T04:36:56.749Z,94211.33
2022-09-06T04:38:03.645Z,94212.66
2022-09-06T04:39:05.665Z,94215.63
2022-09-06T04:40:07.535Z,94218.23
2022-09-06T04:41:15.859Z,94217.14
2022-09-06T04:42:19.975Z,94216.61
2022-09-06T04:43:40.970Z,94212.73
2022-09-06T04:44:45.672Z,94212.33
2022-09-06T04:45:48.050Z,94213.46
2022-09-06T04:46:50.738Z,94211.35
2022-09-06T04:48:10.558Z,94210.05
2022-09-06T04:49:21.530Z,94210.69
2022-09-06T04:50:26.493Z,94208.81
2022-09-06T04:51:29.594Z,94211.60
2022-09-06T04:52:32.934Z,94209.86
2022-09-06T04:53:35.622Z,94212.08
2022-09-06T04:54:37.950Z,94212.08
2022-09-06T04:55:40.934Z,94212.08
2022-09-06T04:56:46.578Z,94213.75
2022-09-06T04:57:51.225Z,94214.16
2022-09-06T04:58:54.797Z,94213.02
2022-09-06T04:59:56.492Z,94214.14
2022-09-06T05:01:00.033Z,94212.54
2022-09-06T05:02:08.023Z,94214.86
2022-09-06T05:03:15.919Z,94218.02
2022-09-06T05:04:18.782Z,94220.35
2022-09-06T05:05:21.879Z,94223.65
2022-09-06T05:06:24.449Z,94222.19
2022-09-06T05:07:29.404Z,94220.67
2022-09-06T05:08:31.198Z,94223.42
2022-09-06T05:09:37.419Z,94223.48
2022-09-06T05:10:39.203Z,94225.43
2022-09-06T05:11:40.970Z,94222.40
2022-09-06T05:12:49.834Z,94225.95
2022-09-06T05:13:54.455Z,94223.75
2022-09-06T05:15:01.657Z,94226.78
2022-09-06T05:16:10.781Z,94224.79
2022-09-06T05:17:14.215Z,94226.65
2022-09-06T05:18:16.358Z,94226.69
2022-09-06T05:19:18.714Z,94226.48
2022-09-06T05:20:23.988Z,94228.57
2022-09-06T05:21:26.675Z,94227.77
2022-09-06T05:22:28.992Z,94232.34
2022-09-06T05:23:31.726Z,94230.58
2022-09-06T05:24:33.640Z,94232.55
2022-09-06T05:25:35.811Z,94231.73
2022-09-06T05:26:43.611Z,94232.25
2022-09-06T05:27:45.393Z,94231.80
2022-09-06T05:28:47.074Z,94232.48
2022-09-06T05:29:48.726Z,94237.94
2022-09-06T05:30:50.486Z,94237.33
2022-09-06T05:31:52.821Z,94238.42
2022-09-06T05:32:54.543Z,94237.26
2022-09-06T05:33:57.234Z,94236.77
2022-09-06T05:34:58.885Z,94236.95
2022-09-06T05:36:00.540Z,94234.29
2022-09-06T05:37:05.016Z,94234.04
2022-09-06T05:38:06.725Z,94235.57
2022-09-06T05:39:08.576Z,94235.83
2022-09-06T05:40:11.334Z,94236.27
2022-09-06T05:41:13.226Z,94234.69
2022-09-06T05:42:19.045Z,94234.98
2022-09-06T05:43:21.289Z,94238.14
2022-09-06T05:44:23.006Z,94239.81
2022-09-06T05:45:24.690Z,94237.05
2022-09-06T05:46:26.511Z,94238.83
2022-09-06T05:47:30.572Z,94238.02
2022-09-06T05:48:36.806Z,94238.46
2022-09-06T05:49:38.972Z,94238.06
2022-09-06T05:50:40.727Z,94236.98
2022-09-06T05:51:42.375Z,94235.17
2022-09-06T05:52:44.168Z,94233.96
2022-09-06T05:53:45.729Z,94232.38
2022-09-06T05:54:47.449Z,94233.83
2022-09-06T05:55:49.014Z,94238.34
2022-09-06T05:56:50.720Z,94236.00
2022-09-06T05:57:52.327Z,94236.65
2022-09-06T05:58:54.174Z,94238.27
2022-09-06T05:59:55.724Z,94240.08
2022-09-06T06:01:07.617Z,94241.27
2022-09-06T06:02:09.202Z,94247.02
2022-09-06T06:03:10.880Z,94241.91
2022-09-06T06:04:12.415Z,94244.39
2022-09-06T06:05:14.400Z,94245.56
2022-09-06T06:06:15.954Z,94242.29
2022-09-06T06:07:17.683Z,94243.83
2022-09-06T06:08:19.374Z,94245.55
2022-09-06T06:09:21.059Z,94243.29
2022-09-06T06:10:22.977Z,94244.71
2022-09-06T06:11:25.553Z,94248.69
2022-09-06T06:12:33.902Z,94246.03
2022-09-06T06:13:38.949Z,94248.76
2022-09-06T06:14:40.615Z,94245.51
2022-09-06T06:15:49.899Z,94248.88
2022-09-06T06:16:52.197Z,94249.45
2022-09-06T06:17:54.053Z,94247.49
2022-09-06T06:18:56.135Z,94246.42
2022-09-06T06:19:58.930Z,94247.30
2022-09-06T06:21:26.759Z,94244.85
2022-09-06T06:22:28.441Z,94246.19
2022-09-06T06:23:30.287Z,94247.05
2022-09-06T06:24:31.984Z,94247.73
2022-09-06T06:25:36.161Z,94249.35
2022-09-06T06:26:39.794Z,94245.36
2022-09-06T06:27:54.410Z,94252.54
2022-09-06T06:29:09.214Z,94249.15
2022-09-06T06:30:19.877Z,94249.76
2022-09-06T06:31:31.548Z,94251.27
2022-09-06T06:32:39.959Z,94246.74
2022-09-06T06:33:56.534Z,94248.48
2022-09-06T06:35:09.164Z,94246.45
2022-09-06T06:36:13.830Z,94248.95
2022-09-06T06:37:15.660Z,94247.75
2022-09-06T06:38:50.255Z,94249.00
2022-09-06T06:39:51.909Z,94250.62
2022-09-06T06:40:59.455Z,94242.27
2022-09-06T06:42:03.916Z,94248.69
2022-09-06T06:43:07.617Z,94251.29
2022-09-06T06:44:18.609Z,94251.51
2022-09-06T06:45:23.773Z,94253.50
2022-09-06T06:46:30.884Z,94253.65
2022-09-06T06:47:32.863Z,94249.08
2022-09-06T06:48:36.815Z,94254.91
2022-09-06T06:49:38.480Z,94256.98
2022-09-06T06:50:41.074Z,94257.97
2022-09-06T06:51:42.761Z,94257.85
2022-09-06T06:52:44.393Z,94252.61
2022-09-06T06:53:47.146Z,94255.36
2022-09-06T06:54:49.584Z,94255.42
2022-09-06T06:55:52.096Z,94254.48
2022-09-06T06:56:54.863Z,94256.17
2022-09-06T06:58:01.165Z,94255.23
2022-09-06T06:59:07.612Z,94256.09
2022-09-06T07:00:10.620Z,94252.22
2022-09-06T07:01:15.954Z,94253.59
2022-09-06T07:02:20.306Z,94249.80
2022-09-06T07:03:30.839Z,94253.11
2022-09-06T07:04:32.804Z,94255.41
2022-09-06T07:08:29.102Z,94254.77
2022-09-06T07:10:52.314Z,94255.84
2022-09-06T07:11:53.964Z,94258.13
2022-09-06T07:12:55.580Z,94249.98
2022-09-06T07:13:57.242Z,94255.58
2022-09-06T07:14:58.798Z,94254.11
2022-09-06T07:16:10.686Z,94243.75
2022-09-06T07:17:12.231Z,94252.15
2022-09-06T07:18:16.759Z,94252.60
2022-09-06T07:22:13.568Z,94245.73
2022-09-06T07:24:45.357Z,94243.66
2022-09-06T07:25:47.266Z,94246.42
2022-09-06T07:28:11.961Z,94243.33
2022-09-06T07:29:14.283Z,94241.98
2022-09-06T07:30:16.980Z,94245.73
2022-09-06T07:32:41.898Z,94249.55
2022-09-06T07:33:53.828Z,94248.05
2022-09-06T07:35:02.890Z,94248.08
2022-09-06T07:36:06.998Z,94247.72
2022-09-06T07:37:11.363Z,94247.90
2022-09-06T07:38:13.231Z,94249.13
2022-09-06T07:39:15.094Z,94252.98
2022-09-06T07:40:16.794Z,94254.48
2022-09-06T07:41:20.608Z,94251.81
2022-09-06T07:42:22.313Z,94253.58
2022-09-06T07:43:25.967Z,94251.44
2022-09-06T07:44:36.606Z,94252.25
2022-09-06T07:45:38.221Z,94250.92
2022-09-06T07:46:40.298Z,94247.55
2022-09-06T07:48:00.346Z,94246.91
2022-09-06T07:49:06.440Z,94245.86
2022-09-06T07:51:47.905Z,94241.05
2022-09-06T07:54:30.285Z,94242.21
2022-09-06T07:55:32.900Z,94241.27
2022-09-06T07:56:41.349Z,94240.98
2022-09-06T07:57:46.124Z,94242.31
2022-09-06T07:58:48.280Z,94236.77
2022-09-06T07:59:49.783Z,94239.02
2022-09-06T08:00:52.477Z,94235.23
2022-09-06T08:01:54.244Z,94237.75
2022-09-06T08:02:56.244Z,94239.48
2022-09-06T08:04:01.079Z,94234.36
2022-09-06T08:05:03.461Z,94238.08
2022-09-06T08:10:02.868Z,94237.42
2022-09-06T08:11:07.152Z,94240.77
2022-09-06T08:12:08.951Z,94245.65
2022-09-06T08:13:11.095Z,94244.77
2022-09-06T08:14:14.748Z,94244.92
2022-09-06T08:15:16.454Z,94249.05
2022-09-06T08:16:25.349Z,94249.77
2022-09-06T08:17:39.161Z,94246.38
2022-09-06T08:18:43.129Z,94252.03
2022-09-06T08:19:51.172Z,94248.37
2022-09-06T08:21:01.778Z,94248.02
2022-09-06T08:22:06.240Z,94247.94
2022-09-06T08:23:10.923Z,94247.90
2022-09-06T08:24:12.943Z,94249.02
2022-09-06T08:25:14.529Z,94248.08
2022-09-06T08:26:23.364Z,94249.85
2022-09-06T08:27:25.207Z,94253.48
2022-09-06T08:28:28.826Z,94250.23
2022-09-06T08:29:30.566Z,94256.85
2022-09-06T08:30:32.539Z,94256.02
2022-09-06T08:31:35.655Z,94254.26
2022-09-06T08:32:38.594Z,94251.89
2022-09-06T08:33:40.887Z,94253.11
2022-09-06T08:34:42.742Z,94249.52
2022-09-06T08:35:53.532Z,94251.30
2022-09-06T08:36:55.123Z,94250.11
2022-09-06T08:38:02.293Z,94251.17
2022-09-06T08:39:05.009Z,94248.20
2022-09-06T08:40:07.046Z,94246.85
2022-09-06T08:41:08.708Z,94246.96
2022-09-06T08:42:12.534Z,94246.66
2022-09-06T08:43:16.093Z,94244.73
2022-09-06T08:45:55.848Z,94244.21
2022-09-06T08:47:03.258Z,94243.09
2022-09-06T08:48:05.052Z,94237.36
2022-09-06T08:49:07.105Z,94236.72
2022-09-06T08:50:09.851Z,94236.48
2022-09-06T08:51:12.961Z,94233.70
2022-09-06T08:52:33.183Z,94231.06
2022-09-06T08:53:39.146Z,94231.13
2022-09-06T08:54:46.320Z,94232.92
2022-09-06T08:56:08.415Z,94235.34
2022-09-06T08:57:10.151Z,94233.25
2022-09-06T08:58:12.820Z,94231.55
2022-09-06T08:59:17.141Z,94231.79
2022-09-06T09:00:19.215Z,94230.20
2022-09-06T09:01:24.874Z,94231.55
2022-09-06T09:02:29.998Z,94231.57
2022-09-06T09:03:38.871Z,94228.27
2022-09-06T09:05:00.907Z,94224.50
2022-09-06T09:06:07.726Z,94229.65
2022-09-06T09:07:29.291Z,94224.52
2022-09-06T09:08:50.471Z,94222.27
2022-09-06T09:09:54.416Z,94224.17
2022-09-06T09:11:01.890Z,94222.70
2022-09-06T09:12:05.226Z,94220.25
2022-09-06T09:13:07.740Z,94218.48
2022-09-06T09:14:19.563Z,94218.52
2022-09-06T09:15:21.896Z,94214.30
2022-09-06T09:16:23.549Z,94218.23
2022-09-06T09:17:27.552Z,94221.27
2022-09-06T09:18:33.729Z,94222.67
2022-09-06T09:19:41.451Z,94221.29
2022-09-06T09:20:43.229Z,94219.91
2022-09-06T09:21:44.771Z,94220.15
2022-09-06T09:22:48.890Z,94217.64
2022-09-06T09:23:55.075Z,94214.83
2022-09-06T09:24:58.696Z,94216.23
2022-09-06T09:26:03.605Z,94213.56
2022-09-06T09:27:08.173Z,94212.20
2022-09-06T09:28:13.840Z,94211.55
2022-09-06T09:29:15.566Z,94212.42
2022-09-06T09:31:40.631Z,94210.31
2022-09-06T09:32:44.479Z,94209.50
2022-09-06T09:33:46.307Z,94207.54
2022-09-06T09:34:51.219Z,94203.19
2022-09-06T09:35:56.494Z,94205.63
2022-09-06T09:38:40.142Z,94202.37
2022-09-06T09:39:41.942Z,94204.23
2022-09-06T09:40:54.326Z,94201.38
2022-09-06T09:41:55.911Z,94199.19
2022-09-06T09:43:10.547Z,94198.42
2022-09-06T09:44:18.837Z,94194.92
2022-09-06T09:45:20.520Z,94196.90
2022-09-06T09:46:22.572Z,94194.68
2022-09-06T09:47:27.412Z,94193.92
2022-09-06T09:48:29.483Z,94192.73
2022-09-06T09:49:32.226Z,94191.00
2022-09-06T09:50:34.602Z,94188.41
2022-09-06T09:51:37.819Z,94191.27
2022-09-06T09:52:43.543Z,94191.15
2022-09-06T09:53:53.051Z,94188.74
2022-09-06T09:55:01.079Z,94191.23
2022-09-06T09:56:03.145Z,94187.91
2022-09-06T09:57:11.708Z,94193.59
2022-09-06T09:58:31.978Z,94193.80
2022-09-06T09:59:41.625Z,94189.06
2022-09-06T10:00:43.569Z,94188.91
2022-09-06T10:01:45.334Z,94192.81
2022-09-06T10:02:47.160Z,94189.46
2022-09-06T10:05:12.729Z,94184.36
2022-09-06T10:07:42.931Z,94180.97
2022-09-06T10:08:44.686Z,94179.96
2022-09-06T10:09:58.339Z,94178.79
2022-09-06T10:11:00.405Z,94180.73
2022-09-06T10:12:02.470Z,94181.60
2022-09-06T10:13:07.059Z,94176.28
2022-09-06T10:14:19.469Z,94173.02
2022-09-06T10:15:39.357Z,94175.02
2022-09-06T10:16:43.334Z,94175.17
2022-09-06T10:17:51.220Z,94177.83
2022-09-06T10:18:52.881Z,94177.95
2022-09-06T10:19:56.545Z,94177.59
2022-09-06T10:21:12.332Z,94176.11
2022-09-06T10:22:25.728Z,94173.98
2022-09-06T10:25:25.735Z,94173.48
2022-09-06T10:26:27.458Z,94171.93
2022-09-06T10:27:30.582Z,94175.59
2022-09-06T10:28:32.321Z,94178.37
2022-09-06T10:29:40.132Z,94175.38
2022-09-06T10:30:50.391Z,94172.21
2022-09-06T10:31:59.207Z,94172.97
2022-09-06T10:33:13.194Z,94172.63
2022-09-06T10:34:20.821Z,94178.52
2022-09-06T10:35:23.693Z,94177.41
2022-09-06T10:36:31.680Z,94177.98
2022-09-06T10:37:52.286Z,94170.86
2022-09-06T10:39:14.164Z,94172.77
2022-09-06T10:40:21.923Z,94170.77
2022-09-06T10:41:28.401Z,94166.63
2022-09-06T10:42:44.707Z,94168.39
2022-09-06T10:43:54.422Z,94165.41
2022-09-06T10:45:03.030Z,94166.93
2022-09-06T10:46:11.235Z,94167.77
2022-09-06T10:47:14.309Z,94173.00
2022-09-06T10:48:41.544Z,94165.35
2022-09-06T10:49:50.690Z,94172.27
2022-09-06T10:50:55.227Z,94174.96
2022-09-06T10:52:00.521Z,94170.81
2022-09-06T10:53:07.149Z,94172.90
2022-09-06T10:54:13.130Z,94170.44
2022-09-06T10:55:17.242Z,94170.48
2022-09-06T10:56:37.149Z,94169.96
2022-09-06T10:59:37.423Z,94173.55
2022-09-06T11:00:46.110Z,94173.21
2022-09-06T11:01:50.469Z,94176.33
2022-09-06T11:04:26.453Z,94171.68
2022-09-06T11:06:50.043Z,94172.15
2022-09-06T11:09:26.877Z,94168.33
2022-09-06T11:10:28.445Z,94171.73
2022-09-06T11:11:39.004Z,94167.04
2022-09-06T11:12:53.775Z,94166.55
2022-09-06T11:13:55.355Z,94164.23
2022-09-06T11:14:59.285Z,94167.02
2022-09-06T11:16:20.005Z,94168.95
2022-09-06T11:17:30.914Z,94165.69
2022-09-06T11:18:39.356Z,94170.22
2022-09-06T11:19:51.024Z,94169.79
2022-09-06T11:21:08.197Z,94166.80
2022-09-06T11:22:15.480Z,94168.46
2022-09-06T11:23:16.994Z,94164.15
2022-09-06T11:24:30.689Z,94164.98
2022-09-06T11:25:41.147Z,94167.36
2022-09-06T11:27:00.365Z,94170.88
2022-09-06T11:28:05.329Z,94166.02
2022-09-06T11:29:08.984Z,94168.59
2022-09-06T11:30:15.045Z,94165.20
2022-09-06T11:32:49.994Z,94161.30
2022-09-06T11:34:12.454Z,94160.50
2022-09-06T11:35:21.894Z,94153.30
2022-09-06T11:36:34.432Z,94151.55
2022-09-06T11:37:36.201Z,94153.47
2022-09-06T11:38:37.808Z,94153.51
2022-09-06T11:41:05.588Z,94148.74
2022-09-06T11:42:09.751Z,94154.73
2022-09-06T11:43:14.213Z,94152.72
2022-09-06T11:44:35.874Z,94153.73
2022-09-06T11:45:40.361Z,94154.92
2022-09-06T11:46:42.444Z,94148.54
2022-09-06T11:47:46.775Z,94148.71
2022-09-06T11:49:00.460Z,94152.13
2022-09-06T11:50:40.555Z,94153.80
2022-09-06T11:51:43.434Z,94152.61
2022-09-06T11:53:04.274Z,94150.64
2022-09-06T11:54:18.022Z,94150.67
2022-09-06T11:55:22.943Z,94143.80
2022-09-06T11:56:32.927Z,94144.42
2022-09-06T11:57:34.790Z,94137.59
2022-09-06T11:58:39.620Z,94144.09
2022-09-06T11:59:48.679Z,94141.98
2022-09-06T12:01:09.375Z,94140.35
2022-09-06T12:02:29.901Z,94136.94
2022-09-06T12:05:07.078Z,94135.11
2022-09-06T12:06:20.529Z,94132.11
2022-09-06T12:07:22.134Z,94130.15
2022-09-06T12:08:27.627Z,94131.80
2022-09-06T12:09:31.078Z,94133.56
2022-09-06T12:10:32.586Z,94128.79
2022-09-06T12:11:34.363Z,94130.30
2022-09-06T12:12:51.914Z,94132.23
2022-09-06T12:13:54.268Z,94128.21
2022-09-06T12:14:55.937Z,94128.27
2022-09-06T12:15:57.704Z,94127.41
2022-09-06T12:17:04.457Z,94126.37
2022-09-06T12:18:06.053Z,94122.75
2022-09-06T12:19:07.824Z,94117.13
2022-09-06T12:20:10.755Z,94118.61
2022-09-06T12:21:48.453Z,94120.54
2022-09-06T12:22:51.069Z,94118.84
2022-09-06T12:23:54.115Z,94115.46
2022-09-06T12:24:57.148Z,94117.70
2022-09-06T12:25:58.770Z,94120.60
2022-09-06T12:27:19.410Z,94121.17
2022-09-06T12:28:26.127Z,94116.85
2022-09-06T12:29:27.906Z,94120.30
2022-09-06T12:30:41.648Z,94116.28
2022-09-06T12:31:50.403Z,94112.80
2022-09-06T12:32:54.834Z,94113.66
2022-09-06T12:33:57.709Z,94111.70
2022-09-06T12:36:30.498Z,94105.86
2022-09-06T12:37:34.780Z,94106.48
2022-09-06T12:38:36.429Z,94105.52
2022-09-06T12:39:48.360Z,94103.83
2022-09-06T12:40:57.739Z,94101.42
2022-09-06T12:42:00.724Z,94102.32
2022-09-06T12:43:03.380Z,94100.12
2022-09-06T12:44:06.958Z,94100.30
2022-09-06T12:45:08.534Z,94099.02
2022-09-06T12:46:10.241Z,94097.83
2022-09-06T12:47:14.442Z,94093.91
2022-09-06T12:48:27.788Z,94096.30
2022-09-06T12:49:29.671Z,94095.83
2022-09-06T12:50:31.462Z,94099.61
2022-09-06T12:51:33.357Z,94094.35
2022-09-06T12:52:43.125Z,94091.20
2022-09-06T12:53:51.672Z,94091.72
2022-09-06T12:54:53.404Z,94092.96
2022-09-06T12:56:06.088Z,94089.68
2022-09-06T12:57:12.215Z,94085.36
2022-09-06T12:58:13.859Z,94083.52
2022-09-06T12:59:26.593Z,94087.79
2022-09-06T13:00:35.125Z,94083.84
2022-09-06T13:01:44.394Z,94085.98
2022-09-06T13:02:52.478Z,94079.05
2022-09-06T13:04:02.244Z,94082.14
2022-09-06T13:05:06.311Z,94077.08
2022-09-06T13:06:18.096Z,94076.55
2022-09-06T13:07:21.647Z,94075.70
2022-09-06T13:08:28.959Z,94080.11
2022-09-06T13:09:31.206Z,94075.05
2022-09-06T13:10:34.009Z,94074.69
2022-09-06T13:11:38.050Z,94074.49
2022-09-06T13:12:42.343Z,94075.21
2022-09-06T13:13:48.344Z,94074.49
2022-09-06T13:14:52.090Z,94071.52
2022-09-06T13:15:53.910Z,94072.87
2022-09-06T13:16:59.570Z,94078.27
2022-09-06T13:18:26.254Z,94072.29
2022-09-06T13:19:38.837Z,94072.27
2022-09-06T13:20:40.584Z,94069.52
2022-09-06T13:21:43.544Z,94065.63
2022-09-06T13:22:47.259Z,94068.30
2022-09-06T13:23:52.362Z,94064.38
2022-09-06T13:24:55.611Z,94068.04
2022-09-06T13:25:57.327Z,94066.73
2022-09-06T13:26:59.032Z,94066.07
2022-09-06T13:28:01.848Z,94064.77
2022-09-06T13:29:30.137Z,94062.04